Open Full Screen Window  High Contrast Mode
Wind Gusting 00 knots
07
October 19, 2018 3:27 PM EDT
Weather Information
Wind Direction
  200 °
Wind Speed
  07 kt (8 mph)
Wind Gust
  00 kt (0 mph)
Altimeter
30.03 in
Visibility
10 SM
Temperature
15° C
59° F
Dewpoint
00° C
32° F
Humidity
36%
1hr Rain Fall
00.00 in.
24hr Rain Fall
00.00 in.
Sky Condition
Clear
VFR

METAR KDLZ 191927Z AUTO 20007KT 10SM CLR 15/00 A3003 RMK AO2

FAA Disclaimer: The data displayed is for advisory purposes only and is not to be used for flight planning or operations.